sensor_id;sensor_type;location;lat;lon;timestamp;pressure;altitude;pressure_sealevel;temperature;humidity
72585;BME280;60618;40.084;32.908;2023-02-08T00:01:52;89791.38;;;-6.53;66.53
72585;BME280;60618;40.084;32.908;2023-02-08T00:04:19;89787.69;;;-6.52;66.92
72585;BME280;60618;40.084;32.908;2023-02-08T00:06:45;89789.22;;;-6.44;66.86
72585;BME280;60618;40.084;32.908;2023-02-08T00:09:12;89799.53;;;-6.48;66.99
72585;BME280;60618;40.084;32.908;2023-02-08T00:11:39;89790.69;;;-6.47;66.57
72585;BME280;60618;40.084;32.908;2023-02-08T00:14:06;89790.59;;;-6.58;66.80
72585;BME280;60618;40.084;32.908;2023-02-08T00:16:33;89794.63;;;-6.64;66.95
72585;BME280;60618;40.084;32.908;2023-02-08T00:19:00;89798.00;;;-6.56;67.01
72585;BME280;60618;40.084;32.908;2023-02-08T00:21:27;89791.34;;;-6.57;67.11
72585;BME280;60618;40.084;32.908;2023-02-08T00:23:57;89796.88;;;-6.59;67.24
72585;BME280;60618;40.084;32.908;2023-02-08T00:26:24;89799.06;;;-6.64;67.14
72585;BME280;60618;40.084;32.908;2023-02-08T00:28:51;89793.91;;;-6.64;67.57
72585;BME280;60618;40.084;32.908;2023-02-08T00:31:18;89801.94;;;-6.76;67.92
72585;BME280;60618;40.084;32.908;2023-02-08T00:33:45;89798.63;;;-6.73;67.76
72585;BME280;60618;40.084;32.908;2023-02-08T00:36:12;89802.75;;;-6.65;68.19
72585;BME280;60618;40.084;32.908;2023-02-08T00:38:41;89804.59;;;-6.66;67.57
72585;BME280;60618;40.084;32.908;2023-02-08T00:41:09;89812.78;;;-6.64;68.37
72585;BME280;60618;40.084;32.908;2023-02-08T00:43:36;89805.44;;;-6.54;67.80
72585;BME280;60618;40.084;32.908;2023-02-08T00:46:03;89816.53;;;-6.54;67.29
72585;BME280;60618;40.084;32.908;2023-02-08T00:48:31;89800.25;;;-6.54;67.80
72585;BME280;60618;40.084;32.908;2023-02-08T00:51:00;89809.78;;;-6.66;67.74
72585;BME280;60618;40.084;32.908;2023-02-08T00:53:34;89804.59;;;-6.66;67.60
72585;BME280;60618;40.084;32.908;2023-02-08T00:56:01;89803.84;;;-6.70;68.21
72585;BME280;60618;40.084;32.908;2023-02-08T00:58:28;89806.41;;;-6.70;68.14
72585;BME280;60618;40.084;32.908;2023-02-08T01:00:55;89807.22;;;-6.62;68.09
72585;BME280;60618;40.084;32.908;2023-02-08T01:03:23;89799.31;;;-6.80;68.11
72585;BME280;60618;40.084;32.908;2023-02-08T01:05:50;89811.91;;;-6.75;68.76
72585;BME280;60618;40.084;32.908;2023-02-08T01:08:18;89806.47;;;-6.63;67.79
72585;BME280;60618;40.084;32.908;2023-02-08T01:10:45;89812.84;;;-6.53;67.67
72585;BME280;60618;40.084;32.908;2023-02-08T01:13:12;89814.28;;;-6.59;67.06
72585;BME280;60618;40.084;32.908;2023-02-08T01:15:39;89820.19;;;-6.59;66.69
72585;BME280;60618;40.084;32.908;2023-02-08T01:18:07;89818.69;;;-6.63;66.64
72585;BME280;60618;40.084;32.908;2023-02-08T01:20:35;89826.03;;;-6.69;67.38
72585;BME280;60618;40.084;32.908;2023-02-08T01:23:03;89821.19;;;-6.74;67.82
72585;BME280;60618;40.084;32.908;2023-02-08T01:25:30;89819.75;;;-6.68;67.15
72585;BME280;60618;40.084;32.908;2023-02-08T01:27:57;89827.59;;;-6.57;67.45
72585;BME280;60618;40.084;32.908;2023-02-08T01:30:24;89826.84;;;-6.58;67.27
72585;BME280;60618;40.084;32.908;2023-02-08T01:32:51;89826.91;;;-6.54;67.02
72585;BME280;60618;40.084;32.908;2023-02-08T01:35:18;89823.50;;;-6.62;67.14
72585;BME280;60618;40.084;32.908;2023-02-08T01:37:46;89834.22;;;-6.63;67.63
72585;BME280;60618;40.084;32.908;2023-02-08T01:40:15;89832.00;;;-6.65;67.28
72585;BME280;60618;40.084;32.908;2023-02-08T01:42:42;89831.59;;;-6.67;67.81
72585;BME280;60618;40.084;32.908;2023-02-08T01:47:44;89831.56;;;-6.70;67.63
72585;BME280;60618;40.084;32.908;2023-02-08T01:50:14;89837.19;;;-6.65;67.64
72585;BME280;60618;40.084;32.908;2023-02-08T01:52:43;89844.59;;;-6.60;67.63
72585;BME280;60618;40.084;32.908;2023-02-08T01:55:27;89842.84;;;-6.48;67.58
72585;BME280;60618;40.084;32.908;2023-02-08T01:57:58;89845.03;;;-6.50;66.69
72585;BME280;60618;40.084;32.908;2023-02-08T02:00:26;89841.69;;;-6.54;66.64
72585;BME280;60618;40.084;32.908;2023-02-08T02:02:55;89841.03;;;-6.44;67.07
72585;BME280;60618;40.084;32.908;2023-02-08T02:05:28;89851.00;;;-6.46;66.70
72585;BME280;60618;40.084;32.908;2023-02-08T02:07:56;89852.44;;;-6.52;66.41
72585;BME280;60618;40.084;32.908;2023-02-08T02:10:30;89849.91;;;-6.45;66.77
72585;BME280;60618;40.084;32.908;2023-02-08T02:13:07;89858.06;;;-6.43;66.62
72585;BME280;60618;40.084;32.908;2023-02-08T02:15:35;89837.81;;;-6.27;66.60
72585;BME280;60618;40.084;32.908;2023-02-08T02:18:06;89850.03;;;-6.27;66.27
72585;BME280;60618;40.084;32.908;2023-02-08T02:31:32;89852.00;;;-6.58;66.30
72585;BME280;60618;40.084;32.908;2023-02-08T02:34:30;89862.63;;;-6.74;65.89
72585;BME280;60618;40.084;32.908;2023-02-08T02:37:23;89859.41;;;-6.57;66.49
72585;BME280;60618;40.084;32.908;2023-02-08T02:40:07;89869.97;;;-6.35;66.21
72585;BME280;60618;40.084;32.908;2023-02-08T02:45:35;89867.81;;;-6.26;65.00
72585;BME280;60618;40.084;32.908;2023-02-08T02:48:19;89867.75;;;-6.37;65.68
72585;BME280;60618;40.084;32.908;2023-02-08T02:51:12;89871.38;;;-6.45;65.72
72585;BME280;60618;40.084;32.908;2023-02-08T02:54:00;89875.88;;;-6.35;65.93
72585;BME280;60618;40.084;32.908;2023-02-08T02:56:50;89870.59;;;-6.49;66.36
72585;BME280;60618;40.084;32.908;2023-02-08T02:59:18;89872.06;;;-6.51;66.13
72585;BME280;60618;40.084;32.908;2023-02-08T03:01:46;89872.78;;;-6.54;66.51
72585;BME280;60618;40.084;32.908;2023-02-08T03:04:14;89879.09;;;-6.52;65.99
72585;BME280;60618;40.084;32.908;2023-02-08T03:12:06;89881.97;;;-6.61;66.58
72585;BME280;60618;40.084;32.908;2023-02-08T03:20:31;89899.88;;;-6.45;66.10
72585;BME280;60618;40.084;32.908;2023-02-08T03:23:18;89900.34;;;-6.32;66.20
72585;BME280;60618;40.084;32.908;2023-02-08T03:25:51;89902.69;;;-6.13;66.12
72585;BME280;60618;40.084;32.908;2023-02-08T03:29:21;89908.63;;;-6.12;65.58
72585;BME280;60618;40.084;32.908;2023-02-08T03:31:32;89907.19;;;-6.10;65.49
72585;BME280;60618;40.084;32.908;2023-02-08T03:34:15;89898.69;;;-6.07;65.23
72585;BME280;60618;40.084;32.908;2023-02-08T03:36:51;89901.56;;;-6.15;65.40
72585;BME280;60618;40.084;32.908;2023-02-08T03:39:22;89908.59;;;-6.19;65.18
72585;BME280;60618;40.084;32.908;2023-02-08T03:41:57;89916.06;;;-6.11;64.88
72585;BME280;60618;40.084;32.908;2023-02-08T03:44:34;89912.25;;;-6.24;65.26
72585;BME280;60618;40.084;32.908;2023-02-08T03:49:36;89925.72;;;-6.08;64.75
72585;BME280;60618;40.084;32.908;2023-02-08T03:52:07;89924.97;;;-6.08;64.33
72585;BME280;60618;40.084;32.908;2023-02-08T03:54:41;89931.94;;;-6.16;64.44
72585;BME280;60618;40.084;32.908;2023-02-08T03:57:20;89937.19;;;-6.90;64.16
72585;BME280;60618;40.084;32.908;2023-02-08T03:59:59;89937.88;;;-6.93;65.35
72585;BME280;60618;40.084;32.908;2023-02-08T04:02:29;89945.03;;;-7.13;66.75
72585;BME280;60618;40.084;32.908;2023-02-08T04:04:59;89948.72;;;-7.14;67.91
72585;BME280;60618;40.084;32.908;2023-02-08T04:07:27;89958.47;;;-7.34;68.66
72585;BME280;60618;40.084;32.908;2023-02-08T04:09:54;89950.56;;;-7.15;68.14
72585;BME280;60618;40.084;32.908;2023-02-08T04:12:21;89960.16;;;-7.19;68.77
72585;BME280;60618;40.084;32.908;2023-02-08T04:14:48;89962.78;;;-7.11;68.37
72585;BME280;60618;40.084;32.908;2023-02-08T04:17:15;89961.16;;;-6.93;66.79
72585;BME280;60618;40.084;32.908;2023-02-08T04:19:42;89968.63;;;-6.88;66.80
72585;BME280;60618;40.084;32.908;2023-02-08T04:22:09;89972.63;;;-6.94;66.80
72585;BME280;60618;40.084;32.908;2023-02-08T04:24:36;89971.03;;;-7.02;67.59
72585;BME280;60618;40.084;32.908;2023-02-08T04:27:03;89973.00;;;-6.92;67.74
72585;BME280;60618;40.084;32.908;2023-02-08T04:29:32;89985.94;;;-7.26;69.25
72585;BME280;60618;40.084;32.908;2023-02-08T04:31:59;89977.06;;;-7.25;69.58
72585;BME280;60618;40.084;32.908;2023-02-08T04:34:26;89974.03;;;-7.30;69.37
72585;BME280;60618;40.084;32.908;2023-02-08T04:36:53;89988.13;;;-7.28;69.54
72585;BME280;60618;40.084;32.908;2023-02-08T04:39:20;89980.88;;;-7.72;69.73
72585;BME280;60618;40.084;32.908;2023-02-08T04:41:47;89985.47;;;-7.61;69.07
72585;BME280;60618;40.084;32.908;2023-02-08T04:44:14;89999.66;;;-7.75;69.43
72585;BME280;60618;40.084;32.908;2023-02-08T04:46:41;90001.03;;;-8.07;71.15
72585;BME280;60618;40.084;32.908;2023-02-08T04:49:08;90009.75;;;-8.61;71.58
72585;BME280;60618;40.084;32.908;2023-02-08T04:51:35;90002.13;;;-8.08;70.61
72585;BME280;60618;40.084;32.908;2023-02-08T04:54:02;90006.91;;;-7.84;70.05
72585;BME280;60618;40.084;32.908;2023-02-08T04:56:29;90014.00;;;-7.54;68.92
72585;BME280;60618;40.084;32.908;2023-02-08T04:58:56;90016.03;;;-7.40;68.24
72585;BME280;60618;40.084;32.908;2023-02-08T05:01:23;90014.13;;;-7.17;68.64
72585;BME280;60618;40.084;32.908;2023-02-08T05:03:50;90018.56;;;-6.88;68.87
72585;BME280;60618;40.084;32.908;2023-02-08T05:06:17;90026.88;;;-6.71;67.91
72585;BME280;60618;40.084;32.908;2023-02-08T05:08:44;90022.47;;;-7.01;66.99
72585;BME280;60618;40.084;32.908;2023-02-08T05:11:11;90022.94;;;-7.22;68.49
72585;BME280;60618;40.084;32.908;2023-02-08T05:13:38;90032.59;;;-7.72;67.88
72585;BME280;60618;40.084;32.908;2023-02-08T05:16:05;90035.25;;;-7.64;67.98
72585;BME280;60618;40.084;32.908;2023-02-08T05:18:32;90036.63;;;-7.48;69.45
72585;BME280;60618;40.084;32.908;2023-02-08T05:21:00;90035.13;;;-7.22;69.39
72585;BME280;60618;40.084;32.908;2023-02-08T05:23:28;90033.56;;;-7.00;68.85
72585;BME280;60618;40.084;32.908;2023-02-08T05:25:55;90045.84;;;-6.64;68.79
72585;BME280;60618;40.084;32.908;2023-02-08T05:28:22;90038.38;;;-6.35;68.46
72585;BME280;60618;40.084;32.908;2023-02-08T05:30:49;90045.72;;;-6.04;68.57
72585;BME280;60618;40.084;32.908;2023-02-08T05:33:16;90045.25;;;-7.10;64.53
72585;BME280;60618;40.084;32.908;2023-02-08T05:35:44;90046.53;;;-7.27;67.98
72585;BME280;60618;40.084;32.908;2023-02-08T05:38:11;90055.81;;;-6.96;68.38
72585;BME280;60618;40.084;32.908;2023-02-08T05:40:38;90048.91;;;-6.54;65.77
72585;BME280;60618;40.084;32.908;2023-02-08T05:43:06;90053.09;;;-6.06;64.17
72585;BME280;60618;40.084;32.908;2023-02-08T05:45:33;90056.53;;;-5.98;64.15
72585;BME280;60618;40.084;32.908;2023-02-08T05:48:00;90046.28;;;-5.80;65.13
72585;BME280;60618;40.084;32.908;2023-02-08T05:50:27;90054.31;;;-5.48;64.78
72585;BME280;60618;40.084;32.908;2023-02-08T05:52:54;90051.97;;;-5.13;64.51
72585;BME280;60618;40.084;32.908;2023-02-08T05:55:21;90054.31;;;-4.93;62.45
72585;BME280;60618;40.084;32.908;2023-02-08T05:57:48;90064.19;;;-5.13;61.92
72585;BME280;60618;40.084;32.908;2023-02-08T06:00:15;90060.25;;;-5.48;63.19
72585;BME280;60618;40.084;32.908;2023-02-08T06:02:43;90055.31;;;-6.08;62.98
72585;BME280;60618;40.084;32.908;2023-02-08T06:05:10;90065.47;;;-6.63;64.83
72585;BME280;60618;40.084;32.908;2023-02-08T06:07:43;90061.59;;;-6.46;64.99
72585;BME280;60618;40.084;32.908;2023-02-08T06:10:10;90065.59;;;-6.15;63.78
72585;BME280;60618;40.084;32.908;2023-02-08T06:12:37;90063.22;;;-5.93;63.24
72585;BME280;60618;40.084;32.908;2023-02-08T06:15:04;90065.84;;;-5.86;62.92
72585;BME280;60618;40.084;32.908;2023-02-08T06:17:31;90058.03;;;-5.93;63.64
72585;BME280;60618;40.084;32.908;2023-02-08T06:19:58;90065.31;;;-6.06;63.78
72585;BME280;60618;40.084;32.908;2023-02-08T06:22:25;90063.94;;;-5.96;65.00
72585;BME280;60618;40.084;32.908;2023-02-08T06:24:52;90068.44;;;-5.86;65.19
72585;BME280;60618;40.084;32.908;2023-02-08T06:27:19;90066.22;;;-5.84;66.15
72585;BME280;60618;40.084;32.908;2023-02-08T06:29:46;90077.06;;;-5.75;65.44
72585;BME280;60618;40.084;32.908;2023-02-08T06:32:13;90076.44;;;-5.61;65.70
72585;BME280;60618;40.084;32.908;2023-02-08T06:34:40;90075.13;;;-5.41;65.15
72585;BME280;60618;40.084;32.908;2023-02-08T06:37:07;90079.31;;;-5.29;64.61
72585;BME280;60618;40.084;32.908;2023-02-08T06:39:34;90070.09;;;-5.67;64.42
72585;BME280;60618;40.084;32.908;2023-02-08T06:42:01;90073.50;;;-5.60;64.71
72585;BME280;60618;40.084;32.908;2023-02-08T06:44:28;90072.94;;;-5.35;64.32
72585;BME280;60618;40.084;32.908;2023-02-08T06:46:55;90079.69;;;-5.27;64.11
72585;BME280;60618;40.084;32.908;2023-02-08T06:49:22;90076.06;;;-5.16;64.10
72585;BME280;60618;40.084;32.908;2023-02-08T06:51:49;90074.47;;;-4.76;63.92
72585;BME280;60618;40.084;32.908;2023-02-08T06:54:17;90077.63;;;-4.24;65.02
72585;BME280;60618;40.084;32.908;2023-02-08T06:56:45;90074.78;;;-3.80;61.06
72585;BME280;60618;40.084;32.908;2023-02-08T06:59:14;90075.94;;;-3.77;61.04
72585;BME280;60618;40.084;32.908;2023-02-08T07:01:41;90068.50;;;-3.61;61.37
72585;BME280;60618;40.084;32.908;2023-02-08T07:04:08;90074.44;;;-3.85;61.59
72585;BME280;60618;40.084;32.908;2023-02-08T07:06:35;90087.38;;;-4.03;61.99
72585;BME280;60618;40.084;32.908;2023-02-08T07:09:02;90082.88;;;-4.17;62.27
72585;BME280;60618;40.084;32.908;2023-02-08T07:11:29;90078.50;;;-3.84;62.83
72585;BME280;60618;40.084;32.908;2023-02-08T07:13:57;90089.66;;;-3.84;62.64
72585;BME280;60618;40.084;32.908;2023-02-08T07:16:24;90080.06;;;-3.48;62.33
72585;BME280;60618;40.084;32.908;2023-02-08T07:18:51;90083.41;;;-3.36;58.56
72585;BME280;60618;40.084;32.908;2023-02-08T07:21:21;90078.56;;;-3.24;58.31
72585;BME280;60618;40.084;32.908;2023-02-08T07:23:48;90087.16;;;-3.23;59.28
72585;BME280;60618;40.084;32.908;2023-02-08T07:26:18;90092.34;;;-3.20;58.56
72585;BME280;60618;40.084;32.908;2023-02-08T07:28:45;90093.09;;;-3.08;59.67
72585;BME280;60618;40.084;32.908;2023-02-08T07:31:14;90093.78;;;-2.54;58.70
72585;BME280;60618;40.084;32.908;2023-02-08T07:33:43;90097.38;;;-2.06;59.62
72585;BME280;60618;40.084;32.908;2023-02-08T07:36:10;90091.44;;;-2.13;58.53
72585;BME280;60618;40.084;32.908;2023-02-08T07:38:38;90099.78;;;-2.75;59.67
72585;BME280;60618;40.084;32.908;2023-02-08T07:41:12;90104.59;;;-2.81;60.75
72585;BME280;60618;40.084;32.908;2023-02-08T07:43:40;90100.53;;;-3.10;59.45
72585;BME280;60618;40.084;32.908;2023-02-08T07:46:19;90106.47;;;-2.85;59.77
72585;BME280;60618;40.084;32.908;2023-02-08T07:48:47;90105.00;;;-3.07;60.23
72585;BME280;60618;40.084;32.908;2023-02-08T07:51:14;90110.22;;;-3.04;61.53
72585;BME280;60618;40.084;32.908;2023-02-08T07:53:41;90107.97;;;-2.84;61.68
72585;BME280;60618;40.084;32.908;2023-02-08T07:56:08;90108.72;;;-2.94;60.75
72585;BME280;60618;40.084;32.908;2023-02-08T07:58:35;90116.88;;;-2.49;60.26
72585;BME280;60618;40.084;32.908;2023-02-08T08:01:03;90113.06;;;-2.20;60.14
72585;BME280;60618;40.084;32.908;2023-02-08T08:03:47;90114.22;;;-2.39;60.03
72585;BME280;60618;40.084;32.908;2023-02-08T08:06:14;90118.28;;;-2.20;60.73
72585;BME280;60618;40.084;32.908;2023-02-08T08:08:41;90109.47;;;-1.60;60.30
72585;BME280;60618;40.084;32.908;2023-02-08T08:11:08;90116.84;;;-0.89;57.32
72585;BME280;60618;40.084;32.908;2023-02-08T08:13:35;90123.84;;;-0.34;56.93
72585;BME280;60618;40.084;32.908;2023-02-08T08:16:02;90108.19;;;0.31;54.56
72585;BME280;60618;40.084;32.908;2023-02-08T08:18:29;90111.84;;;0.95;54.14
72585;BME280;60618;40.084;32.908;2023-02-08T08:20:56;90107.13;;;1.36;51.61
72585;BME280;60618;40.084;32.908;2023-02-08T08:23:23;90108.25;;;1.35;50.89
72585;BME280;60618;40.084;32.908;2023-02-08T08:25:51;90105.50;;;1.66;50.13
72585;BME280;60618;40.084;32.908;2023-02-08T08:28:20;90106.09;;;1.54;48.57
72585;BME280;60618;40.084;32.908;2023-02-08T08:30:47;90112.56;;;1.69;50.41
72585;BME280;60618;40.084;32.908;2023-02-08T08:33:14;90109.94;;;1.69;48.33
72585;BME280;60618;40.084;32.908;2023-02-08T08:35:42;90112.44;;;1.76;51.31
72585;BME280;60618;40.084;32.908;2023-02-08T08:38:09;90110.09;;;2.25;50.09
72585;BME280;60618;40.084;32.908;2023-02-08T08:40:36;90110.00;;;2.09;50.40
72585;BME280;60618;40.084;32.908;2023-02-08T08:43:04;90121.78;;;2.40;49.06
72585;BME280;60618;40.084;32.908;2023-02-08T08:45:31;90117.38;;;2.73;47.91
72585;BME280;60618;40.084;32.908;2023-02-08T08:47:58;90116.69;;;2.89;47.73
72585;BME280;60618;40.084;32.908;2023-02-08T08:50:26;90118.91;;;2.91;48.55
72585;BME280;60618;40.084;32.908;2023-02-08T08:52:53;90124.41;;;2.40;47.33
72585;BME280;60618;40.084;32.908;2023-02-08T08:55:20;90121.63;;;2.67;49.41
72585;BME280;60618;40.084;32.908;2023-02-08T08:57:47;90122.81;;;2.82;47.84
72585;BME280;60618;40.084;32.908;2023-02-08T09:00:14;90120.88;;;3.03;48.42
72585;BME280;60618;40.084;32.908;2023-02-08T09:02:41;90116.97;;;3.27;45.56
72585;BME280;60618;40.084;32.908;2023-02-08T09:05:08;90115.91;;;3.25;47.27
72585;BME280;60618;40.084;32.908;2023-02-08T09:07:35;90109.50;;;3.26;47.30
72585;BME280;60618;40.084;32.908;2023-02-08T09:10:02;90107.34;;;3.21;46.52
72585;BME280;60618;40.084;32.908;2023-02-08T09:12:30;90101.81;;;3.31;45.93
72585;BME280;60618;40.084;32.908;2023-02-08T09:14:57;90108.50;;;3.20;47.25
72585;BME280;60618;40.084;32.908;2023-02-08T09:17:24;90107.69;;;3.55;47.42
72585;BME280;60618;40.084;32.908;2023-02-08T09:19:50;90104.44;;;3.96;47.43
72585;BME280;60618;40.084;32.908;2023-02-08T09:22:18;90100.91;;;3.87;45.30
72585;BME280;60618;40.084;32.908;2023-02-08T09:24:45;90092.91;;;3.90;44.35
72585;BME280;60618;40.084;32.908;2023-02-08T09:27:12;90096.88;;;4.11;45.57
72585;BME280;60618;40.084;32.908;2023-02-08T09:29:39;90094.34;;;4.08;45.61
72585;BME280;60618;40.084;32.908;2023-02-08T09:32:05;90086.66;;;3.84;44.32
72585;BME280;60618;40.084;32.908;2023-02-08T09:34:36;90088.06;;;3.89;44.47
72585;BME280;60618;40.084;32.908;2023-02-08T09:37:05;90079.97;;;3.96;44.71
72585;BME280;60618;40.084;32.908;2023-02-08T09:39:32;90087.13;;;3.95;44.57
72585;BME280;60618;40.084;32.908;2023-02-08T09:47:33;90065.91;;;3.25;44.96
72585;BME280;60618;40.084;32.908;2023-02-08T09:50:21;90071.66;;;3.36;46.00
72585;BME280;60618;40.084;32.908;2023-02-08T09:55:45;90072.22;;;3.11;44.72
72585;BME280;60618;40.084;32.908;2023-02-08T09:58:25;90068.03;;;2.97;44.65
72585;BME280;60618;40.084;32.908;2023-02-08T10:00:54;90064.25;;;2.98;44.84
72585;BME280;60618;40.084;32.908;2023-02-08T10:03:35;90069.97;;;2.93;45.17
72585;BME280;60618;40.084;32.908;2023-02-08T10:06:04;90064.00;;;3.25;43.82
72585;BME280;60618;40.084;32.908;2023-02-08T10:08:32;90072.78;;;2.86;42.57
72585;BME280;60618;40.084;32.908;2023-02-08T10:14:36;90067.69;;;2.23;44.28
72585;BME280;60618;40.084;32.908;2023-02-08T10:18:07;90068.31;;;2.11;45.34
72585;BME280;60618;40.084;32.908;2023-02-08T10:34:17;90063.16;;;2.43;45.76
72585;BME280;60618;40.084;32.908;2023-02-08T10:36:46;90056.91;;;2.37;44.65
72585;BME280;60618;40.084;32.908;2023-02-08T10:39:18;90059.81;;;2.59;47.34
72585;BME280;60618;40.084;32.908;2023-02-08T10:41:46;90068.34;;;2.83;46.57
72585;BME280;60618;40.084;32.908;2023-02-08T10:44:24;90067.22;;;3.17;45.87
72585;BME280;60618;40.084;32.908;2023-02-08T10:50:01;90051.38;;;2.68;45.89
72585;BME280;60618;40.084;32.908;2023-02-08T10:52:30;90057.47;;;2.09;45.71
72585;BME280;60618;40.084;32.908;2023-02-08T10:54:58;90051.31;;;1.76;47.98
72585;BME280;60618;40.084;32.908;2023-02-08T10:57:32;90058.97;;;1.47;47.65
72585;BME280;60618;40.084;32.908;2023-02-08T11:00:04;90052.78;;;1.33;48.23
72585;BME280;60618;40.084;32.908;2023-02-08T11:02:34;90047.09;;;1.15;46.73
72585;BME280;60618;40.084;32.908;2023-02-08T11:05:12;90050.00;;;0.74;48.65
72585;BME280;60618;40.084;32.908;2023-02-08T11:07:40;90044.00;;;0.73;50.61
72585;BME280;60618;40.084;32.908;2023-02-08T11:12:58;90053.03;;;0.96;50.06
72585;BME280;60618;40.084;32.908;2023-02-08T11:15:32;90044.69;;;1.24;50.66
72585;BME280;60618;40.084;32.908;2023-02-08T11:18:01;90049.66;;;1.42;50.00
72585;BME280;60618;40.084;32.908;2023-02-08T11:20:38;90050.25;;;1.30;48.19
72585;BME280;60618;40.084;32.908;2023-02-08T11:25:52;90048.44;;;0.22;49.68
72585;BME280;60618;40.084;32.908;2023-02-08T11:34:27;90049.06;;;-0.31;54.16
72585;BME280;60618;40.084;32.908;2023-02-08T11:36:55;90046.97;;;0.18;53.44
72585;BME280;60618;40.084;32.908;2023-02-08T11:42:35;90045.72;;;-0.01;54.18
72585;BME280;60618;40.084;32.908;2023-02-08T11:45:03;90042.63;;;0.08;55.38
72585;BME280;60618;40.084;32.908;2023-02-08T11:47:33;90048.25;;;-0.24;53.15
72585;BME280;60618;40.084;32.908;2023-02-08T11:50:03;90054.09;;;-0.13;52.22
72585;BME280;60618;40.084;32.908;2023-02-08T11:55:14;90054.03;;;-0.06;53.04
72585;BME280;60618;40.084;32.908;2023-02-08T11:57:53;90061.34;;;0.06;54.39
72585;BME280;60618;40.084;32.908;2023-02-08T12:00:24;90062.47;;;0.05;54.89
72585;BME280;60618;40.084;32.908;2023-02-08T12:02:59;90051.31;;;0.01;54.14
72585;BME280;60618;40.084;32.908;2023-02-08T12:05:51;90051.69;;;-0.01;53.95
72585;BME280;60618;40.084;32.908;2023-02-08T12:08:31;90057.09;;;-0.15;53.18
72585;BME280;60618;40.084;32.908;2023-02-08T12:11:07;90065.63;;;-0.41;54.29
72585;BME280;60618;40.084;32.908;2023-02-08T12:13:52;90060.81;;;-0.12;54.71
72585;BME280;60618;40.084;32.908;2023-02-08T12:16:32;90057.84;;;-0.14;53.70
72585;BME280;60618;40.084;32.908;2023-02-08T12:21:57;90059.91;;;-0.33;55.10
72585;BME280;60618;40.084;32.908;2023-02-08T12:24:31;90056.28;;;-0.80;56.50
72585;BME280;60618;40.084;32.908;2023-02-08T12:29:59;90055.88;;;-0.78;57.16
72585;BME280;60618;40.084;32.908;2023-02-08T12:35:37;90069.88;;;-0.20;57.50
72585;BME280;60618;40.084;32.908;2023-02-08T12:41:41;90065.09;;;-0.25;55.81
72585;BME280;60618;40.084;32.908;2023-02-08T12:50:20;90081.72;;;-0.09;55.18
72585;BME280;60618;40.084;32.908;2023-02-08T12:53:14;90084.84;;;0.13;53.91
72585;BME280;60618;40.084;32.908;2023-02-08T12:55:43;90085.63;;;0.10;55.02
72585;BME280;60618;40.084;32.908;2023-02-08T12:58:34;90085.28;;;0.39;54.04
72585;BME280;60618;40.084;32.908;2023-02-08T13:01:09;90090.06;;;0.44;53.28
72585;BME280;60618;40.084;32.908;2023-02-08T13:06:38;90086.13;;;0.59;51.13
72585;BME280;60618;40.084;32.908;2023-02-08T13:12:07;90085.63;;;0.68;49.60
72585;BME280;60618;40.084;32.908;2023-02-08T13:14:51;90086.38;;;0.68;50.71
72585;BME280;60618;40.084;32.908;2023-02-08T13:17:27;90090.28;;;0.56;50.84
72585;BME280;60618;40.084;32.908;2023-02-08T13:20:27;90085.97;;;0.70;50.62
72585;BME280;60618;40.084;32.908;2023-02-08T13:22:55;90085.28;;;0.93;49.09
72585;BME280;60618;40.084;32.908;2023-02-08T13:25:33;90086.03;;;0.66;49.68
72585;BME280;60618;40.084;32.908;2023-02-08T13:28:05;90086.22;;;0.79;48.86
72585;BME280;60618;40.084;32.908;2023-02-08T13:30:34;90079.72;;;0.91;49.42
72585;BME280;60618;40.084;32.908;2023-02-08T13:33:17;90083.44;;;0.90;50.08
72585;BME280;60618;40.084;32.908;2023-02-08T13:35:49;90078.16;;;0.93;48.79
72585;BME280;60618;40.084;32.908;2023-02-08T13:38:29;90071.94;;;0.83;49.89
72585;BME280;60618;40.084;32.908;2023-02-08T13:41:03;90087.09;;;0.72;49.60
72585;BME280;60618;40.084;32.908;2023-02-08T13:43:42;90072.09;;;0.46;47.42
72585;BME280;60618;40.084;32.908;2023-02-08T13:46:15;90095.72;;;0.08;48.59
72585;BME280;60618;40.084;32.908;2023-02-08T13:48:52;90091.59;;;-0.23;51.29
72585;BME280;60618;40.084;32.908;2023-02-08T13:59:30;90089.06;;;-0.72;51.25
72585;BME280;60618;40.084;32.908;2023-02-08T14:02:17;90093.81;;;-0.60;52.99
72585;BME280;60618;40.084;32.908;2023-02-08T14:04:46;90095.06;;;-0.75;53.73
72585;BME280;60618;40.084;32.908;2023-02-08T14:07:22;90082.47;;;-0.91;54.93
72585;BME280;60618;40.084;32.908;2023-02-08T14:10:01;90098.28;;;-1.05;56.96
72585;BME280;60618;40.084;32.908;2023-02-08T14:12:41;90101.25;;;-1.03;57.53
72585;BME280;60618;40.084;32.908;2023-02-08T14:17:47;90107.22;;;-0.99;57.70
72585;BME280;60618;40.084;32.908;2023-02-08T14:20:23;90111.66;;;-0.96;59.15
72585;BME280;60618;40.084;32.908;2023-02-08T14:23:00;90102.00;;;-0.99;58.89
72585;BME280;60618;40.084;32.908;2023-02-08T14:25:42;90118.19;;;-1.22;59.57
72585;BME280;60618;40.084;32.908;2023-02-08T14:28:31;90108.94;;;-1.37;60.36
72585;BME280;60618;40.084;32.908;2023-02-08T14:31:02;90116.91;;;-1.58;60.96
72585;BME280;60618;40.084;32.908;2023-02-08T14:33:34;90113.56;;;-1.59;60.91
72585;BME280;60618;40.084;32.908;2023-02-08T14:36:05;90116.91;;;-1.62;61.68
72585;BME280;60618;40.084;32.908;2023-02-08T14:38:52;90119.50;;;-1.51;61.73
72585;BME280;60618;40.084;32.908;2023-02-08T14:41:42;90112.03;;;-1.56;61.70
72585;BME280;60618;40.084;32.908;2023-02-08T14:50:20;90121.84;;;-1.82;62.20
72585;BME280;60618;40.084;32.908;2023-02-08T14:53:03;90134.97;;;-1.92;62.62
72585;BME280;60618;40.084;32.908;2023-02-08T14:55:36;90134.25;;;-1.96;62.41
72585;BME280;60618;40.084;32.908;2023-02-08T14:58:11;90140.59;;;-1.97;62.35
72585;BME280;60618;40.084;32.908;2023-02-08T15:00:40;90137.22;;;-1.98;62.72
72585;BME280;60618;40.084;32.908;2023-02-08T15:03:13;90137.25;;;-2.09;62.70
72585;BME280;60618;40.084;32.908;2023-02-08T15:06:11;90145.13;;;-2.23;63.54
72585;BME280;60618;40.084;32.908;2023-02-08T15:08:59;90135.44;;;-2.26;63.72
72585;BME280;60618;40.084;32.908;2023-02-08T15:11:30;90140.66;;;-2.30;63.65